ミラノ/マルペンサ の空港の天気 - METARとTAF

ミラノ・マルペンサ国際空港 ( LIMC / MXP ) - イタリア ミラノ
飛行場実況気象(Metar)
観測時間10/23 15:20 CEST (10/23 13:20 UTC)
風向・風速北 11m/s
視程10km以上
天気現象
なし
気温22℃
湿度17%
気圧1014hPa
METARLIMC 231320Z 35021KT CAVOK 22/M04 Q1014 NOSIG
過去の天気等 Google飛行場航空写真 Wunderground天気予報

過去48時間のMETAR

飛行場予報(TAF)
発表時間: 10/23 13:00 CEST (10/23 11:00 UTC)
予報対象時間: 23日14時 CEST ~ 24日20時 CEST
風向・風速北 7m/s
視程10km以上
なし
TAF LIMC 231100Z 2312/2418 35013KT CAVOK